sensor_id;sensor_type;location;lat;lon;timestamp;temperature;humidity
28460;DHT22;32528;45.712;9.192;2023-05-01T00:01:24;16.10;97.10
28460;DHT22;32528;45.712;9.192;2023-05-01T00:03:25;16.10;97.10
28460;DHT22;32528;45.712;9.192;2023-05-01T00:05:26;16.10;97.00
28460;DHT22;32528;45.712;9.192;2023-05-01T00:07:27;16.10;97.20
28460;DHT22;32528;45.712;9.192;2023-05-01T00:09:31;16.10;97.30
28460;DHT22;32528;45.712;9.192;2023-05-01T00:11:32;16.10;97.50
28460;DHT22;32528;45.712;9.192;2023-05-01T00:13:34;16.10;97.20
28460;DHT22;32528;45.712;9.192;2023-05-01T00:15:34;16.10;97.30
28460;DHT22;32528;45.712;9.192;2023-05-01T00:17:35;16.10;97.30
28460;DHT22;32528;45.712;9.192;2023-05-01T00:19:36;16.00;97.40
28460;DHT22;32528;45.712;9.192;2023-05-01T00:21:37;16.00;97.40
28460;DHT22;32528;45.712;9.192;2023-05-01T00:23:37;16.00;97.50
28460;DHT22;32528;45.712;9.192;2023-05-01T00:25:38;16.00;97.50
28460;DHT22;32528;45.712;9.192;2023-05-01T00:27:39;16.00;97.60
28460;DHT22;32528;45.712;9.192;2023-05-01T00:29:40;16.00;97.50
28460;DHT22;32528;45.712;9.192;2023-05-01T00:31:42;16.00;97.70
28460;DHT22;32528;45.712;9.192;2023-05-01T00:33:42;16.00;97.70
28460;DHT22;32528;45.712;9.192;2023-05-01T00:35:44;16.00;97.90
28460;DHT22;32528;45.712;9.192;2023-05-01T00:37:45;15.90;98.00
28460;DHT22;32528;45.712;9.192;2023-05-01T00:39:46;15.90;98.00
28460;DHT22;32528;45.712;9.192;2023-05-01T00:41:47;15.90;98.00
28460;DHT22;32528;45.712;9.192;2023-05-01T00:43:47;15.90;98.10
28460;DHT22;32528;45.712;9.192;2023-05-01T00:45:48;15.90;97.90
28460;DHT22;32528;45.712;9.192;2023-05-01T00:47:49;15.90;98.00
28460;DHT22;32528;45.712;9.192;2023-05-01T00:49:50;16.00;98.00
28460;DHT22;32528;45.712;9.192;2023-05-01T00:51:52;15.90;97.90
28460;DHT22;32528;45.712;9.192;2023-05-01T00:53:54;16.00;98.00
28460;DHT22;32528;45.712;9.192;2023-05-01T00:55:56;16.00;97.90
28460;DHT22;32528;45.712;9.192;2023-05-01T00:57:58;16.00;97.90
28460;DHT22;32528;45.712;9.192;2023-05-01T00:59:59;16.00;97.80
28460;DHT22;32528;45.712;9.192;2023-05-01T01:02:00;16.00;97.90
28460;DHT22;32528;45.712;9.192;2023-05-01T01:04:01;16.00;97.80
28460;DHT22;32528;45.712;9.192;2023-05-01T01:06:10;16.00;97.80
28460;DHT22;32528;45.712;9.192;2023-05-01T01:08:29;15.90;98.00
28460;DHT22;32528;45.712;9.192;2023-05-01T01:17:26;16.00;98.20
28460;DHT22;32528;45.712;9.192;2023-05-01T01:19:43;15.90;98.30
28460;DHT22;32528;45.712;9.192;2023-05-01T01:21:54;15.90;98.20
28460;DHT22;32528;45.712;9.192;2023-05-01T01:24:21;15.90;98.30
28460;DHT22;32528;45.712;9.192;2023-05-01T01:26:50;15.90;98.30
28460;DHT22;32528;45.712;9.192;2023-05-01T01:32:08;15.90;98.50
28460;DHT22;32528;45.712;9.192;2023-05-01T01:34:33;15.90;98.60
28460;DHT22;32528;45.712;9.192;2023-05-01T01:37:19;15.90;98.70
28460;DHT22;32528;45.712;9.192;2023-05-01T01:39:15;15.90;98.80
28460;DHT22;32528;45.712;9.192;2023-05-01T01:41:29;15.90;98.80
28460;DHT22;32528;45.712;9.192;2023-05-01T01:43:34;15.80;98.90
28460;DHT22;32528;45.712;9.192;2023-05-01T01:45:42;15.90;99.00
28460;DHT22;32528;45.712;9.192;2023-05-01T01:47:43;15.80;99.20
28460;DHT22;32528;45.712;9.192;2023-05-01T01:49:48;15.80;99.20
28460;DHT22;32528;45.712;9.192;2023-05-01T01:51:52;15.80;99.50
28460;DHT22;32528;45.712;9.192;2023-05-01T01:53:57;15.80;99.90
28460;DHT22;32528;45.712;9.192;2023-05-01T01:56:02;15.80;99.60
28460;DHT22;32528;45.712;9.192;2023-05-01T01:58:05;15.80;99.60
28460;DHT22;32528;45.712;9.192;2023-05-01T02:00:08;15.80;99.60
28460;DHT22;32528;45.712;9.192;2023-05-01T02:02:15;15.80;99.70
28460;DHT22;32528;45.712;9.192;2023-05-01T02:04:19;15.80;99.70
28460;DHT22;32528;45.712;9.192;2023-05-01T02:06:20;15.80;99.70
28460;DHT22;32528;45.712;9.192;2023-05-01T02:08:23;15.90;99.90
28460;DHT22;32528;45.712;9.192;2023-05-01T02:10:25;15.80;99.70
28460;DHT22;32528;45.712;9.192;2023-05-01T02:12:27;15.80;99.90
28460;DHT22;32528;45.712;9.192;2023-05-01T02:14:29;15.80;99.90
28460;DHT22;32528;45.712;9.192;2023-05-01T02:16:32;15.70;99.90
28460;DHT22;32528;45.712;9.192;2023-05-01T02:18:35;15.70;99.90
28460;DHT22;32528;45.712;9.192;2023-05-01T02:20:36;15.70;99.90
28460;DHT22;32528;45.712;9.192;2023-05-01T02:22:42;15.70;99.90
28460;DHT22;32528;45.712;9.192;2023-05-01T02:24:46;15.70;99.90
28460;DHT22;32528;45.712;9.192;2023-05-01T02:26:51;15.70;99.90
28460;DHT22;32528;45.712;9.192;2023-05-01T02:28:55;15.70;99.90
28460;DHT22;32528;45.712;9.192;2023-05-01T02:30:56;15.70;99.90
28460;DHT22;32528;45.712;9.192;2023-05-01T02:32:58;15.70;99.90
28460;DHT22;32528;45.712;9.192;2023-05-01T02:34:59;15.70;99.90
28460;DHT22;32528;45.712;9.192;2023-05-01T02:37:03;15.70;99.90
28460;DHT22;32528;45.712;9.192;2023-05-01T02:39:05;15.70;99.90
28460;DHT22;32528;45.712;9.192;2023-05-01T02:41:07;15.70;99.90
28460;DHT22;32528;45.712;9.192;2023-05-01T02:43:12;15.70;99.90
28460;DHT22;32528;45.712;9.192;2023-05-01T02:45:24;15.60;99.90
28460;DHT22;32528;45.712;9.192;2023-05-01T02:47:26;15.70;99.90
28460;DHT22;32528;45.712;9.192;2023-05-01T02:49:29;15.60;99.90
28460;DHT22;32528;45.712;9.192;2023-05-01T02:51:31;15.50;99.90
28460;DHT22;32528;45.712;9.192;2023-05-01T02:53:32;15.50;99.90
28460;DHT22;32528;45.712;9.192;2023-05-01T02:55:42;15.50;99.90
28460;DHT22;32528;45.712;9.192;2023-05-01T02:57:43;15.60;99.90
28460;DHT22;32528;45.712;9.192;2023-05-01T02:59:45;15.50;99.90
28460;DHT22;32528;45.712;9.192;2023-05-01T03:01:46;15.50;99.90
28460;DHT22;32528;45.712;9.192;2023-05-01T03:03:47;15.50;99.90
28460;DHT22;32528;45.712;9.192;2023-05-01T03:05:48;15.50;99.90
28460;DHT22;32528;45.712;9.192;2023-05-01T03:07:48;15.40;99.90
28460;DHT22;32528;45.712;9.192;2023-05-01T03:09:50;15.40;99.90
28460;DHT22;32528;45.712;9.192;2023-05-01T03:11:52;15.50;99.90
28460;DHT22;32528;45.712;9.192;2023-05-01T03:13:52;15.50;99.90
28460;DHT22;32528;45.712;9.192;2023-05-01T03:15:53;15.50;99.90
28460;DHT22;32528;45.712;9.192;2023-05-01T03:17:54;15.50;99.90
28460;DHT22;32528;45.712;9.192;2023-05-01T03:19:55;15.50;99.90
28460;DHT22;32528;45.712;9.192;2023-05-01T03:21:56;15.60;99.90
28460;DHT22;32528;45.712;9.192;2023-05-01T03:23:57;15.50;99.90
28460;DHT22;32528;45.712;9.192;2023-05-01T03:25:58;15.50;99.90
28460;DHT22;32528;45.712;9.192;2023-05-01T03:28:00;15.40;99.90
28460;DHT22;32528;45.712;9.192;2023-05-01T03:30:00;15.40;99.90
28460;DHT22;32528;45.712;9.192;2023-05-01T03:32:04;15.40;99.90
28460;DHT22;32528;45.712;9.192;2023-05-01T03:34:06;15.40;99.90
28460;DHT22;32528;45.712;9.192;2023-05-01T03:36:07;15.40;99.90
28460;DHT22;32528;45.712;9.192;2023-05-01T03:38:11;15.30;99.90
28460;DHT22;32528;45.712;9.192;2023-05-01T03:40:30;15.30;99.90
28460;DHT22;32528;45.712;9.192;2023-05-01T03:43:09;15.30;99.90
28460;DHT22;32528;45.712;9.192;2023-05-01T03:45:11;15.30;99.90
28460;DHT22;32528;45.712;9.192;2023-05-01T03:47:12;15.30;99.90
28460;DHT22;32528;45.712;9.192;2023-05-01T03:49:15;15.20;99.90
28460;DHT22;32528;45.712;9.192;2023-05-01T03:51:21;15.20;99.90
28460;DHT22;32528;45.712;9.192;2023-05-01T03:53:23;15.20;99.90
28460;DHT22;32528;45.712;9.192;2023-05-01T03:55:24;15.20;99.90
28460;DHT22;32528;45.712;9.192;2023-05-01T03:57:26;15.20;99.90
28460;DHT22;32528;45.712;9.192;2023-05-01T03:59:27;15.10;99.90
28460;DHT22;32528;45.712;9.192;2023-05-01T04:01:27;15.20;99.90
28460;DHT22;32528;45.712;9.192;2023-05-01T04:03:28;15.20;99.90
28460;DHT22;32528;45.712;9.192;2023-05-01T04:05:29;15.00;99.90
28460;DHT22;32528;45.712;9.192;2023-05-01T04:07:35;15.00;99.90
28460;DHT22;32528;45.712;9.192;2023-05-01T04:09:36;15.00;99.90
28460;DHT22;32528;45.712;9.192;2023-05-01T04:11:37;15.10;99.90
28460;DHT22;32528;45.712;9.192;2023-05-01T04:13:38;15.10;99.90
28460;DHT22;32528;45.712;9.192;2023-05-01T04:15:38;15.10;99.90
28460;DHT22;32528;45.712;9.192;2023-05-01T04:17:43;15.00;99.90
28460;DHT22;32528;45.712;9.192;2023-05-01T04:19:44;15.00;99.90
28460;DHT22;32528;45.712;9.192;2023-05-01T04:21:47;15.00;99.90
28460;DHT22;32528;45.712;9.192;2023-05-01T04:23:49;15.00;99.90
28460;DHT22;32528;45.712;9.192;2023-05-01T04:25:49;14.90;99.90
28460;DHT22;32528;45.712;9.192;2023-05-01T04:27:52;14.90;99.90
28460;DHT22;32528;45.712;9.192;2023-05-01T04:29:53;15.00;99.90
28460;DHT22;32528;45.712;9.192;2023-05-01T04:31:56;14.90;99.90
28460;DHT22;32528;45.712;9.192;2023-05-01T04:33:56;14.90;99.90
28460;DHT22;32528;45.712;9.192;2023-05-01T04:35:58;14.90;99.90
28460;DHT22;32528;45.712;9.192;2023-05-01T04:38:00;14.90;99.90
28460;DHT22;32528;45.712;9.192;2023-05-01T04:40:01;14.90;99.90
28460;DHT22;32528;45.712;9.192;2023-05-01T04:42:03;15.00;99.90
28460;DHT22;32528;45.712;9.192;2023-05-01T04:44:04;14.90;99.90
28460;DHT22;32528;45.712;9.192;2023-05-01T04:46:05;14.90;99.90
28460;DHT22;32528;45.712;9.192;2023-05-01T04:48:06;14.90;99.90
28460;DHT22;32528;45.712;9.192;2023-05-01T04:50:07;14.90;99.90
28460;DHT22;32528;45.712;9.192;2023-05-01T04:52:09;14.90;99.90
28460;DHT22;32528;45.712;9.192;2023-05-01T04:54:23;15.00;99.90
28460;DHT22;32528;45.712;9.192;2023-05-01T04:56:25;15.00;99.90
28460;DHT22;32528;45.712;9.192;2023-05-01T04:58:30;15.00;99.90
28460;DHT22;32528;45.712;9.192;2023-05-01T05:00:36;15.00;99.90
28460;DHT22;32528;45.712;9.192;2023-05-01T05:02:39;15.00;99.90
28460;DHT22;32528;45.712;9.192;2023-05-01T05:04:40;15.00;99.90
28460;DHT22;32528;45.712;9.192;2023-05-01T05:06:40;15.00;99.90
28460;DHT22;32528;45.712;9.192;2023-05-01T05:08:47;15.00;99.90
28460;DHT22;32528;45.712;9.192;2023-05-01T05:10:56;15.00;99.90
28460;DHT22;32528;45.712;9.192;2023-05-01T05:13:04;15.00;99.90
28460;DHT22;32528;45.712;9.192;2023-05-01T05:15:05;15.10;99.90
28460;DHT22;32528;45.712;9.192;2023-05-01T05:17:06;15.00;99.90
28460;DHT22;32528;45.712;9.192;2023-05-01T05:19:07;15.00;99.90
28460;DHT22;32528;45.712;9.192;2023-05-01T05:21:12;15.00;99.90
28460;DHT22;32528;45.712;9.192;2023-05-01T05:23:19;15.10;99.90
28460;DHT22;32528;45.712;9.192;2023-05-01T05:25:20;15.10;99.90
28460;DHT22;32528;45.712;9.192;2023-05-01T05:27:22;15.10;99.90
28460;DHT22;32528;45.712;9.192;2023-05-01T05:29:23;15.10;99.90
28460;DHT22;32528;45.712;9.192;2023-05-01T05:31:24;15.10;99.90
28460;DHT22;32528;45.712;9.192;2023-05-01T05:33:25;15.20;99.90
28460;DHT22;32528;45.712;9.192;2023-05-01T05:35:26;15.20;99.90
28460;DHT22;32528;45.712;9.192;2023-05-01T05:37:28;15.20;99.90
28460;DHT22;32528;45.712;9.192;2023-05-01T05:39:30;15.30;99.90
28460;DHT22;32528;45.712;9.192;2023-05-01T05:41:31;15.30;99.90
28460;DHT22;32528;45.712;9.192;2023-05-01T05:43:35;15.40;99.90
28460;DHT22;32528;45.712;9.192;2023-05-01T05:45:37;15.40;99.90
28460;DHT22;32528;45.712;9.192;2023-05-01T05:47:39;15.50;99.90
28460;DHT22;32528;45.712;9.192;2023-05-01T05:49:40;15.50;99.90
28460;DHT22;32528;45.712;9.192;2023-05-01T05:51:41;15.50;99.90
28460;DHT22;32528;45.712;9.192;2023-05-01T05:53:43;15.60;99.90
28460;DHT22;32528;45.712;9.192;2023-05-01T05:55:47;15.60;99.90
28460;DHT22;32528;45.712;9.192;2023-05-01T05:57:48;15.70;99.90
28460;DHT22;32528;45.712;9.192;2023-05-01T05:59:49;15.80;99.90
28460;DHT22;32528;45.712;9.192;2023-05-01T06:01:53;15.90;99.90
28460;DHT22;32528;45.712;9.192;2023-05-01T06:03:54;16.00;99.90
28460;DHT22;32528;45.712;9.192;2023-05-01T06:05:58;16.10;99.90
28460;DHT22;32528;45.712;9.192;2023-05-01T06:07:58;16.20;99.90
28460;DHT22;32528;45.712;9.192;2023-05-01T06:09:59;16.20;99.90
28460;DHT22;32528;45.712;9.192;2023-05-01T06:12:04;16.20;99.90
28460;DHT22;32528;45.712;9.192;2023-05-01T06:14:06;16.20;99.90
28460;DHT22;32528;45.712;9.192;2023-05-01T06:16:07;16.20;99.90
28460;DHT22;32528;45.712;9.192;2023-05-01T06:18:07;16.20;99.90
28460;DHT22;32528;45.712;9.192;2023-05-01T06:20:10;16.20;99.90
28460;DHT22;32528;45.712;9.192;2023-05-01T06:22:11;16.30;99.90
28460;DHT22;32528;45.712;9.192;2023-05-01T06:24:24;16.30;99.90
28460;DHT22;32528;45.712;9.192;2023-05-01T06:26:30;16.40;99.90
28460;DHT22;32528;45.712;9.192;2023-05-01T06:28:31;16.50;99.90
28460;DHT22;32528;45.712;9.192;2023-05-01T06:30:32;16.60;99.90
28460;DHT22;32528;45.712;9.192;2023-05-01T06:32:32;16.60;99.90
28460;DHT22;32528;45.712;9.192;2023-05-01T06:34:33;16.70;99.90
28460;DHT22;32528;45.712;9.192;2023-05-01T06:36:34;16.70;99.90
28460;DHT22;32528;45.712;9.192;2023-05-01T06:38:35;16.80;99.90
28460;DHT22;32528;45.712;9.192;2023-05-01T06:40:36;16.70;99.90
28460;DHT22;32528;45.712;9.192;2023-05-01T06:42:38;16.80;99.90
28460;DHT22;32528;45.712;9.192;2023-05-01T06:44:39;16.80;99.90
28460;DHT22;32528;45.712;9.192;2023-05-01T06:46:40;16.80;99.90
28460;DHT22;32528;45.712;9.192;2023-05-01T06:48:41;16.80;99.90
28460;DHT22;32528;45.712;9.192;2023-05-01T06:50:41;16.90;99.90
28460;DHT22;32528;45.712;9.192;2023-05-01T06:52:42;16.90;99.90
28460;DHT22;32528;45.712;9.192;2023-05-01T06:54:43;16.90;99.90
28460;DHT22;32528;45.712;9.192;2023-05-01T06:56:44;17.00;99.90
28460;DHT22;32528;45.712;9.192;2023-05-01T06:58:45;17.10;99.90
28460;DHT22;32528;45.712;9.192;2023-05-01T07:00:45;17.20;99.90
28460;DHT22;32528;45.712;9.192;2023-05-01T07:02:46;17.20;99.90
28460;DHT22;32528;45.712;9.192;2023-05-01T07:04:47;17.30;99.90
28460;DHT22;32528;45.712;9.192;2023-05-01T07:06:48;17.20;99.90
28460;DHT22;32528;45.712;9.192;2023-05-01T07:08:49;17.30;99.90
28460;DHT22;32528;45.712;9.192;2023-05-01T07:10:51;17.30;99.90
28460;DHT22;32528;45.712;9.192;2023-05-01T07:12:54;17.30;99.90
28460;DHT22;32528;45.712;9.192;2023-05-01T07:14:55;17.50;99.90
28460;DHT22;32528;45.712;9.192;2023-05-01T07:16:58;17.60;99.90
28460;DHT22;32528;45.712;9.192;2023-05-01T07:18:59;17.80;99.90
28460;DHT22;32528;45.712;9.192;2023-05-01T07:20:59;17.90;99.90
28460;DHT22;32528;45.712;9.192;2023-05-01T07:23:00;18.00;99.90
28460;DHT22;32528;45.712;9.192;2023-05-01T07:25:01;18.20;99.90
28460;DHT22;32528;45.712;9.192;2023-05-01T07:27:02;18.50;99.90
28460;DHT22;32528;45.712;9.192;2023-05-01T07:29:03;18.60;99.90
28460;DHT22;32528;45.712;9.192;2023-05-01T07:31:04;18.80;99.90
28460;DHT22;32528;45.712;9.192;2023-05-01T07:33:05;18.80;99.90
28460;DHT22;32528;45.712;9.192;2023-05-01T07:35:06;18.80;99.90
28460;DHT22;32528;45.712;9.192;2023-05-01T07:37:07;18.90;99.90
28460;DHT22;32528;45.712;9.192;2023-05-01T07:39:08;19.00;99.90
28460;DHT22;32528;45.712;9.192;2023-05-01T07:41:08;19.10;99.80
28460;DHT22;32528;45.712;9.192;2023-05-01T07:43:09;19.20;99.30
28460;DHT22;32528;45.712;9.192;2023-05-01T07:45:11;19.10;98.20
28460;DHT22;32528;45.712;9.192;2023-05-01T07:47:11;19.00;98.00
28460;DHT22;32528;45.712;9.192;2023-05-01T07:49:12;19.00;96.60
28460;DHT22;32528;45.712;9.192;2023-05-01T07:51:13;18.90;96.40
28460;DHT22;32528;45.712;9.192;2023-05-01T07:53:14;18.90;97.20
28460;DHT22;32528;45.712;9.192;2023-05-01T07:55:14;18.90;96.00
28460;DHT22;32528;45.712;9.192;2023-05-01T07:57:17;18.80;96.20
28460;DHT22;32528;45.712;9.192;2023-05-01T07:59:18;18.80;96.30
28460;DHT22;32528;45.712;9.192;2023-05-01T08:01:19;18.70;95.00
28460;DHT22;32528;45.712;9.192;2023-05-01T08:03:20;18.70;95.50
28460;DHT22;32528;45.712;9.192;2023-05-01T08:05:22;18.70;95.50
28460;DHT22;32528;45.712;9.192;2023-05-01T08:07:22;18.80;95.30
28460;DHT22;32528;45.712;9.192;2023-05-01T10:00:51;21.20;75.30
28460;DHT22;32528;45.712;9.192;2023-05-01T10:02:52;21.60;75.50
28460;DHT22;32528;45.712;9.192;2023-05-01T10:04:57;21.70;75.00
28460;DHT22;32528;45.712;9.192;2023-05-01T10:07:11;21.70;73.00
28460;DHT22;32528;45.712;9.192;2023-05-01T10:09:12;21.70;72.20
28460;DHT22;32528;45.712;9.192;2023-05-01T10:11:26;21.80;68.80
28460;DHT22;32528;45.712;9.192;2023-05-01T10:13:27;21.90;72.50
28460;DHT22;32528;45.712;9.192;2023-05-01T10:15:37;22.20;72.60
28460;DHT22;32528;45.712;9.192;2023-05-01T10:17:38;22.20;69.00
28460;DHT22;32528;45.712;9.192;2023-05-01T10:19:39;22.20;68.20
28460;DHT22;32528;45.712;9.192;2023-05-01T10:21:40;22.20;68.40
28460;DHT22;32528;45.712;9.192;2023-05-01T10:23:40;22.00;67.90
28460;DHT22;32528;45.712;9.192;2023-05-01T10:25:41;21.90;68.10
28460;DHT22;32528;45.712;9.192;2023-05-01T10:27:43;22.00;69.40
28460;DHT22;32528;45.712;9.192;2023-05-01T10:29:45;22.00;67.00
28460;DHT22;32528;45.712;9.192;2023-05-01T10:31:46;22.20;67.90
28460;DHT22;32528;45.712;9.192;2023-05-01T10:33:47;22.40;67.80
28460;DHT22;32528;45.712;9.192;2023-05-01T10:35:54;22.50;66.20
28460;DHT22;32528;45.712;9.192;2023-05-01T10:38:12;22.70;68.10
28460;DHT22;32528;45.712;9.192;2023-05-01T10:43:13;22.30;66.10
28460;DHT22;32528;45.712;9.192;2023-05-01T10:45:29;22.30;65.90
28460;DHT22;32528;45.712;9.192;2023-05-01T10:52:09;22.20;66.70
28460;DHT22;32528;45.712;9.192;2023-05-01T11:00:40;22.80;65.00
28460;DHT22;32528;45.712;9.192;2023-05-01T11:02:41;22.70;66.90
28460;DHT22;32528;45.712;9.192;2023-05-01T11:10:08;22.90;65.70
28460;DHT22;32528;45.712;9.192;2023-05-01T11:11:44;22.80;64.50
28460;DHT22;32528;45.712;9.192;2023-05-01T11:13:57;22.60;65.70
28460;DHT22;32528;45.712;9.192;2023-05-01T11:15:57;22.40;66.10
28460;DHT22;32528;45.712;9.192;2023-05-01T11:17:59;22.40;66.40
28460;DHT22;32528;45.712;9.192;2023-05-01T11:20:00;22.40;67.40
28460;DHT22;32528;45.712;9.192;2023-05-01T11:22:01;22.40;65.40
28460;DHT22;32528;45.712;9.192;2023-05-01T11:24:12;22.10;65.70
28460;DHT22;32528;45.712;9.192;2023-05-01T11:26:13;22.00;65.30
28460;DHT22;32528;45.712;9.192;2023-05-01T11:28:16;21.90;67.40
28460;DHT22;32528;45.712;9.192;2023-05-01T11:30:18;21.60;66.70
28460;DHT22;32528;45.712;9.192;2023-05-01T11:32:22;21.40;66.80
28460;DHT22;32528;45.712;9.192;2023-05-01T11:34:24;21.00;66.90
28460;DHT22;32528;45.712;9.192;2023-05-01T11:36:27;20.80;68.90
28460;DHT22;32528;45.712;9.192;2023-05-01T11:38:28;20.70;70.40
28460;DHT22;32528;45.712;9.192;2023-05-01T11:40:31;20.70;70.70
28460;DHT22;32528;45.712;9.192;2023-05-01T11:42:32;20.60;70.30
28460;DHT22;32528;45.712;9.192;2023-05-01T11:44:34;20.50;70.40
28460;DHT22;32528;45.712;9.192;2023-05-01T11:46:35;20.60;71.00
28460;DHT22;32528;45.712;9.192;2023-05-01T11:48:36;20.50;70.80
28460;DHT22;32528;45.712;9.192;2023-05-01T11:50:37;20.60;71.30
28460;DHT22;32528;45.712;9.192;2023-05-01T11:52:44;20.70;70.70
28460;DHT22;32528;45.712;9.192;2023-05-01T11:54:46;20.80;71.30
28460;DHT22;32528;45.712;9.192;2023-05-01T11:56:59;20.90;71.90
28460;DHT22;32528;45.712;9.192;2023-05-01T11:59:10;21.00;70.40
28460;DHT22;32528;45.712;9.192;2023-05-01T12:01:11;21.10;70.60
28460;DHT22;32528;45.712;9.192;2023-05-01T12:03:13;21.20;70.60
28460;DHT22;32528;45.712;9.192;2023-05-01T12:05:15;21.20;70.20
28460;DHT22;32528;45.712;9.192;2023-05-01T12:07:24;21.20;70.90
28460;DHT22;32528;45.712;9.192;2023-05-01T12:09:25;21.20;70.90
28460;DHT22;32528;45.712;9.192;2023-05-01T12:11:27;21.30;71.70
28460;DHT22;32528;45.712;9.192;2023-05-01T12:13:28;21.30;72.30
28460;DHT22;32528;45.712;9.192;2023-05-01T12:15:29;21.30;72.20
28460;DHT22;32528;45.712;9.192;2023-05-01T12:17:30;21.20;72.50
28460;DHT22;32528;45.712;9.192;2023-05-01T12:19:33;21.20;72.50
28460;DHT22;32528;45.712;9.192;2023-05-01T12:21:34;20.90;72.90
28460;DHT22;32528;45.712;9.192;2023-05-01T12:23:36;20.80;75.40
28460;DHT22;32528;45.712;9.192;2023-05-01T12:25:38;20.70;75.30
28460;DHT22;32528;45.712;9.192;2023-05-01T12:27:43;20.70;75.60
28460;DHT22;32528;45.712;9.192;2023-05-01T12:29:45;20.70;76.60
28460;DHT22;32528;45.712;9.192;2023-05-01T12:31:48;20.60;74.30
28460;DHT22;32528;45.712;9.192;2023-05-01T12:34:05;20.70;75.00
28460;DHT22;32528;45.712;9.192;2023-05-01T12:36:09;20.60;73.60
28460;DHT22;32528;45.712;9.192;2023-05-01T12:38:13;20.50;74.60
28460;DHT22;32528;45.712;9.192;2023-05-01T12:40:14;20.50;74.50
28460;DHT22;32528;45.712;9.192;2023-05-01T12:42:15;20.40;74.40
28460;DHT22;32528;45.712;9.192;2023-05-01T12:46:22;20.40;75.40
28460;DHT22;32528;45.712;9.192;2023-05-01T12:48:23;20.30;74.30
28460;DHT22;32528;45.712;9.192;2023-05-01T12:50:24;20.20;73.90
28460;DHT22;32528;45.712;9.192;2023-05-01T12:52:25;20.30;74.80
28460;DHT22;32528;45.712;9.192;2023-05-01T12:54:29;20.30;75.30
28460;DHT22;32528;45.712;9.192;2023-05-01T12:56:30;20.40;75.40
28460;DHT22;32528;45.712;9.192;2023-05-01T12:58:37;20.50;74.60
28460;DHT22;32528;45.712;9.192;2023-05-01T13:00:47;20.40;75.70
28460;DHT22;32528;45.712;9.192;2023-05-01T13:02:48;20.50;76.20
28460;DHT22;32528;45.712;9.192;2023-05-01T13:04:49;20.50;76.40
28460;DHT22;32528;45.712;9.192;2023-05-01T13:06:54;20.40;76.30
28460;DHT22;32528;45.712;9.192;2023-05-01T13:08:55;20.20;75.20
28460;DHT22;32528;45.712;9.192;2023-05-01T13:11:14;20.10;76.00
28460;DHT22;32528;45.712;9.192;2023-05-01T13:13:26;20.00;76.50
28460;DHT22;32528;45.712;9.192;2023-05-01T13:15:27;20.00;76.90
28460;DHT22;32528;45.712;9.192;2023-05-01T13:17:29;20.00;77.70
28460;DHT22;32528;45.712;9.192;2023-05-01T13:19:30;20.10;77.10
28460;DHT22;32528;45.712;9.192;2023-05-01T13:21:31;20.00;75.90
28460;DHT22;32528;45.712;9.192;2023-05-01T13:23:32;19.80;76.30
28460;DHT22;32528;45.712;9.192;2023-05-01T13:25:33;19.80;77.90
28460;DHT22;32528;45.712;9.192;2023-05-01T13:27:36;19.80;78.40
28460;DHT22;32528;45.712;9.192;2023-05-01T13:29:37;19.80;76.20
28460;DHT22;32528;45.712;9.192;2023-05-01T13:31:42;19.90;76.50
28460;DHT22;32528;45.712;9.192;2023-05-01T13:33:43;19.90;75.80
28460;DHT22;32528;45.712;9.192;2023-05-01T13:35:44;19.90;74.80
28460;DHT22;32528;45.712;9.192;2023-05-01T13:37:45;20.00;75.60
28460;DHT22;32528;45.712;9.192;2023-05-01T13:39:46;20.00;76.30
28460;DHT22;32528;45.712;9.192;2023-05-01T13:41:50;20.10;76.40
28460;DHT22;32528;45.712;9.192;2023-05-01T13:43:54;20.20;77.60
28460;DHT22;32528;45.712;9.192;2023-05-01T13:45:58;20.30;78.60
28460;DHT22;32528;45.712;9.192;2023-05-01T13:48:00;20.40;78.50
28460;DHT22;32528;45.712;9.192;2023-05-01T13:50:02;20.50;79.30
28460;DHT22;32528;45.712;9.192;2023-05-01T13:52:03;20.60;77.90
28460;DHT22;32528;45.712;9.192;2023-05-01T13:54:04;20.70;74.90
28460;DHT22;32528;45.712;9.192;2023-05-01T13:56:09;20.80;74.30
28460;DHT22;32528;45.712;9.192;2023-05-01T13:58:10;21.10;74.70
28460;DHT22;32528;45.712;9.192;2023-05-01T14:00:15;21.40;73.60
28460;DHT22;32528;45.712;9.192;2023-05-01T14:02:24;21.50;73.60
28460;DHT22;32528;45.712;9.192;2023-05-01T14:04:27;21.60;73.00
28460;DHT22;32528;45.712;9.192;2023-05-01T14:06:28;21.70;72.40
28460;DHT22;32528;45.712;9.192;2023-05-01T14:08:30;22.00;71.40
28460;DHT22;32528;45.712;9.192;2023-05-01T14:10:31;22.10;71.30
28460;DHT22;32528;45.712;9.192;2023-05-01T14:12:33;22.20;71.00
28460;DHT22;32528;45.712;9.192;2023-05-01T14:14:34;22.40;73.10
28460;DHT22;32528;45.712;9.192;2023-05-01T14:16:35;22.60;72.00
28460;DHT22;32528;45.712;9.192;2023-05-01T14:18:44;22.50;69.20
28460;DHT22;32528;45.712;9.192;2023-05-01T14:20:45;22.50;68.90
28460;DHT22;32528;45.712;9.192;2023-05-01T14:22:47;22.60;68.90
28460;DHT22;32528;45.712;9.192;2023-05-01T14:24:50;22.90;68.90
28460;DHT22;32528;45.712;9.192;2023-05-01T14:26:51;23.10;69.30
28460;DHT22;32528;45.712;9.192;2023-05-01T14:28:52;23.20;69.00
28460;DHT22;32528;45.712;9.192;2023-05-01T14:30:54;23.40;68.30
28460;DHT22;32528;45.712;9.192;2023-05-01T14:32:55;23.50;67.80
28460;DHT22;32528;45.712;9.192;2023-05-01T14:34:56;24.40;67.30
28460;DHT22;32528;45.712;9.192;2023-05-01T14:36:59;25.30;64.60
28460;DHT22;32528;45.712;9.192;2023-05-01T14:39:02;26.10;62.70
28460;DHT22;32528;45.712;9.192;2023-05-01T14:41:03;27.00;60.60
28460;DHT22;32528;45.712;9.192;2023-05-01T14:43:04;27.80;59.60
28460;DHT22;32528;45.712;9.192;2023-05-01T14:45:17;28.10;59.00
28460;DHT22;32528;45.712;9.192;2023-05-01T14:47:19;27.90;58.00
28460;DHT22;32528;45.712;9.192;2023-05-01T14:49:22;27.30;58.10
28460;DHT22;32528;45.712;9.192;2023-05-01T14:51:26;27.30;58.40
28460;DHT22;32528;45.712;9.192;2023-05-01T14:53:31;26.60;58.30
28460;DHT22;32528;45.712;9.192;2023-05-01T14:55:32;26.00;59.90
28460;DHT22;32528;45.712;9.192;2023-05-01T14:57:34;26.00;60.60
28460;DHT22;32528;45.712;9.192;2023-05-01T14:59:35;26.40;61.00
28460;DHT22;32528;45.712;9.192;2023-05-01T15:01:37;26.60;58.70
28460;DHT22;32528;45.712;9.192;2023-05-01T15:03:39;26.30;59.60
28460;DHT22;32528;45.712;9.192;2023-05-01T15:05:43;25.90;60.60
28460;DHT22;32528;45.712;9.192;2023-05-01T15:07:45;25.30;61.10
28460;DHT22;32528;45.712;9.192;2023-05-01T15:09:46;24.80;62.30
28460;DHT22;32528;45.712;9.192;2023-05-01T15:11:47;24.80;63.30
28460;DHT22;32528;45.712;9.192;2023-05-01T15:13:48;24.60;63.80
28460;DHT22;32528;45.712;9.192;2023-05-01T15:15:49;24.30;65.30
28460;DHT22;32528;45.712;9.192;2023-05-01T15:17:51;23.90;66.50
28460;DHT22;32528;45.712;9.192;2023-05-01T15:19:51;23.50;67.20